Lowesville, Virginia
Current Conditions -  °F | °C
As of 4:55 AM on Sunday 23 Nov 2014 (Local Time) from KW13 Reporting Station
Clear Clear  
Wind Chill: 29°   Ceiling: Unl
Heat Index: 29°   Visibility: 10mi
Dew Point: 20°   Wind: 0mph
Humidity: 68%   Direction: NA
Pressure: 30.19"   Gusts: NA
Location:  37.8241°N, 78.9649°W
Report Text: KW13 230955Z AUTO 00000KT 10SM CLR M01/M07 A3019 RMK AO1 T10151068
Loading
Personal Weather Stations






























Interactive Weather Map New forecast layout! Learn more

10-Day Weather Forecast

Advertisements
Track Severe Weather on mobile